sensor_id;sensor_type;location;lat;lon;timestamp;temperature;humidity
22781;DHT22;11557;50.884;4.322;2023-06-10T00:00:42;24.00;99.90
22781;DHT22;11557;50.884;4.322;2023-06-10T00:03:08;24.00;99.90
22781;DHT22;11557;50.884;4.322;2023-06-10T00:05:34;24.00;99.90
22781;DHT22;11557;50.884;4.322;2023-06-10T00:08:01;24.00;99.90
22781;DHT22;11557;50.884;4.322;2023-06-10T00:10:36;23.80;99.90
22781;DHT22;11557;50.884;4.322;2023-06-10T00:13:03;23.80;99.90
22781;DHT22;11557;50.884;4.322;2023-06-10T00:15:29;23.80;99.90
22781;DHT22;11557;50.884;4.322;2023-06-10T00:17:55;23.70;99.90
22781;DHT22;11557;50.884;4.322;2023-06-10T00:20:21;23.70;99.90
22781;DHT22;11557;50.884;4.322;2023-06-10T00:22:50;23.70;99.90
22781;DHT22;11557;50.884;4.322;2023-06-10T00:25:16;23.70;99.90
22781;DHT22;11557;50.884;4.322;2023-06-10T00:27:42;23.70;99.90
22781;DHT22;11557;50.884;4.322;2023-06-10T00:30:08;23.70;99.90
22781;DHT22;11557;50.884;4.322;2023-06-10T00:32:35;23.60;99.90
22781;DHT22;11557;50.884;4.322;2023-06-10T00:35:01;23.60;99.90
22781;DHT22;11557;50.884;4.322;2023-06-10T00:37:28;23.60;99.90
22781;DHT22;11557;50.884;4.322;2023-06-10T00:39:57;23.50;99.90
22781;DHT22;11557;50.884;4.322;2023-06-10T00:42:23;23.50;99.90
22781;DHT22;11557;50.884;4.322;2023-06-10T00:44:53;23.50;99.90
22781;DHT22;11557;50.884;4.322;2023-06-10T00:47:19;23.50;99.90
22781;DHT22;11557;50.884;4.322;2023-06-10T00:49:45;23.50;99.90
22781;DHT22;11557;50.884;4.322;2023-06-10T00:52:11;23.50;99.90
22781;DHT22;11557;50.884;4.322;2023-06-10T00:54:38;23.50;99.90
22781;DHT22;11557;50.884;4.322;2023-06-10T00:57:04;23.40;99.90
22781;DHT22;11557;50.884;4.322;2023-06-10T00:59:31;23.40;99.90
22781;DHT22;11557;50.884;4.322;2023-06-10T01:01:57;23.40;99.90
22781;DHT22;11557;50.884;4.322;2023-06-10T01:04:23;23.30;99.90
22781;DHT22;11557;50.884;4.322;2023-06-10T01:09:59;23.30;99.90
22781;DHT22;11557;50.884;4.322;2023-06-10T01:12:41;23.20;99.90
22781;DHT22;11557;50.884;4.322;2023-06-10T01:15:17;23.30;99.90
22781;DHT22;11557;50.884;4.322;2023-06-10T01:18:06;23.30;99.90
22781;DHT22;11557;50.884;4.322;2023-06-10T01:20:37;23.10;99.90
22781;DHT22;11557;50.884;4.322;2023-06-10T01:23:06;23.10;99.90
22781;DHT22;11557;50.884;4.322;2023-06-10T01:25:34;23.00;99.90
22781;DHT22;11557;50.884;4.322;2023-06-10T01:28:14;23.00;99.90
22781;DHT22;11557;50.884;4.322;2023-06-10T01:33:37;22.90;99.90
22781;DHT22;11557;50.884;4.322;2023-06-10T01:36:04;22.90;99.90
22781;DHT22;11557;50.884;4.322;2023-06-10T01:38:38;22.90;99.90
22781;DHT22;11557;50.884;4.322;2023-06-10T01:41:05;22.90;99.90
22781;DHT22;11557;50.884;4.322;2023-06-10T01:43:34;22.90;99.90
22781;DHT22;11557;50.884;4.322;2023-06-10T01:46:02;22.90;99.90
22781;DHT22;11557;50.884;4.322;2023-06-10T01:48:28;22.90;99.90
22781;DHT22;11557;50.884;4.322;2023-06-10T01:50:53;22.80;99.90
22781;DHT22;11557;50.884;4.322;2023-06-10T01:53:22;22.70;99.90
22781;DHT22;11557;50.884;4.322;2023-06-10T01:55:48;22.70;99.90
22781;DHT22;11557;50.884;4.322;2023-06-10T01:58:13;22.70;99.90
22781;DHT22;11557;50.884;4.322;2023-06-10T02:00:39;22.70;99.90
22781;DHT22;11557;50.884;4.322;2023-06-10T02:03:05;22.60;99.90
22781;DHT22;11557;50.884;4.322;2023-06-10T02:05:31;22.60;99.90
22781;DHT22;11557;50.884;4.322;2023-06-10T02:07:57;22.60;99.90
22781;DHT22;11557;50.884;4.322;2023-06-10T02:10:23;22.60;99.90
22781;DHT22;11557;50.884;4.322;2023-06-10T02:12:48;22.50;99.90
22781;DHT22;11557;50.884;4.322;2023-06-10T02:15:14;22.50;99.90
22781;DHT22;11557;50.884;4.322;2023-06-10T02:17:39;22.50;99.90
22781;DHT22;11557;50.884;4.322;2023-06-10T02:20:06;22.50;99.90
22781;DHT22;11557;50.884;4.322;2023-06-10T02:22:33;22.50;99.90
22781;DHT22;11557;50.884;4.322;2023-06-10T02:24:59;22.50;99.90
22781;DHT22;11557;50.884;4.322;2023-06-10T02:27:25;22.50;99.90
22781;DHT22;11557;50.884;4.322;2023-06-10T02:29:50;22.40;99.90
22781;DHT22;11557;50.884;4.322;2023-06-10T02:32:16;22.30;99.90
22781;DHT22;11557;50.884;4.322;2023-06-10T02:34:42;22.30;99.90
22781;DHT22;11557;50.884;4.322;2023-06-10T02:37:09;22.30;99.90
22781;DHT22;11557;50.884;4.322;2023-06-10T02:39:34;22.30;99.90
22781;DHT22;11557;50.884;4.322;2023-06-10T02:42:00;22.20;99.90
22781;DHT22;11557;50.884;4.322;2023-06-10T02:44:25;22.20;99.90
22781;DHT22;11557;50.884;4.322;2023-06-10T02:46:51;22.20;99.90
22781;DHT22;11557;50.884;4.322;2023-06-10T02:49:17;22.10;99.90
22781;DHT22;11557;50.884;4.322;2023-06-10T02:51:42;22.10;99.90
22781;DHT22;11557;50.884;4.322;2023-06-10T02:54:08;22.10;99.90
22781;DHT22;11557;50.884;4.322;2023-06-10T02:56:34;22.10;99.90
22781;DHT22;11557;50.884;4.322;2023-06-10T02:59:00;22.00;99.90
22781;DHT22;11557;50.884;4.322;2023-06-10T03:01:26;21.50;99.90
22781;DHT22;11557;50.884;4.322;2023-06-10T03:03:52;22.10;99.90
22781;DHT22;11557;50.884;4.322;2023-06-10T03:06:18;22.10;99.90
22781;DHT22;11557;50.884;4.322;2023-06-10T03:08:44;22.10;99.90
22781;DHT22;11557;50.884;4.322;2023-06-10T03:11:11;22.00;99.90
22781;DHT22;11557;50.884;4.322;2023-06-10T03:13:38;22.00;99.90
22781;DHT22;11557;50.884;4.322;2023-06-10T03:16:03;22.00;99.90
22781;DHT22;11557;50.884;4.322;2023-06-10T03:18:30;21.90;99.90
22781;DHT22;11557;50.884;4.322;2023-06-10T03:20:55;21.90;99.90
22781;DHT22;11557;50.884;4.322;2023-06-10T03:23:23;21.90;99.90
22781;DHT22;11557;50.884;4.322;2023-06-10T03:25:48;21.90;99.90
22781;DHT22;11557;50.884;4.322;2023-06-10T03:28:14;21.90;99.90
22781;DHT22;11557;50.884;4.322;2023-06-10T03:30:40;21.80;99.90
22781;DHT22;11557;50.884;4.322;2023-06-10T03:33:05;21.80;99.90
22781;DHT22;11557;50.884;4.322;2023-06-10T03:35:31;21.80;99.90
22781;DHT22;11557;50.884;4.322;2023-06-10T03:37:58;21.80;99.90
22781;DHT22;11557;50.884;4.322;2023-06-10T03:40:24;21.80;99.90
22781;DHT22;11557;50.884;4.322;2023-06-10T03:42:50;21.80;99.90
22781;DHT22;11557;50.884;4.322;2023-06-10T03:45:15;21.80;99.90
22781;DHT22;11557;50.884;4.322;2023-06-10T03:47:41;21.80;99.90
22781;DHT22;11557;50.884;4.322;2023-06-10T03:50:08;21.80;99.90
22781;DHT22;11557;50.884;4.322;2023-06-10T03:52:35;21.80;99.90
22781;DHT22;11557;50.884;4.322;2023-06-10T03:55:02;21.80;99.90
22781;DHT22;11557;50.884;4.322;2023-06-10T03:57:28;21.80;99.90
22781;DHT22;11557;50.884;4.322;2023-06-10T03:59:54;21.80;99.90
22781;DHT22;11557;50.884;4.322;2023-06-10T04:02:20;21.80;99.90
22781;DHT22;11557;50.884;4.322;2023-06-10T04:04:46;21.80;99.90
22781;DHT22;11557;50.884;4.322;2023-06-10T04:07:12;21.80;99.90
22781;DHT22;11557;50.884;4.322;2023-06-10T04:09:37;21.80;99.90
22781;DHT22;11557;50.884;4.322;2023-06-10T04:12:04;21.90;99.90
22781;DHT22;11557;50.884;4.322;2023-06-10T04:14:33;21.90;99.90
22781;DHT22;11557;50.884;4.322;2023-06-10T04:17:01;21.90;99.90
22781;DHT22;11557;50.884;4.322;2023-06-10T04:19:27;21.90;99.90
22781;DHT22;11557;50.884;4.322;2023-06-10T04:21:53;21.90;99.90
22781;DHT22;11557;50.884;4.322;2023-06-10T04:24:19;21.90;99.90
22781;DHT22;11557;50.884;4.322;2023-06-10T04:26:45;21.90;99.90
22781;DHT22;11557;50.884;4.322;2023-06-10T04:29:11;22.00;99.90
22781;DHT22;11557;50.884;4.322;2023-06-10T04:31:37;22.00;99.90
22781;DHT22;11557;50.884;4.322;2023-06-10T04:34:02;22.00;99.90
22781;DHT22;11557;50.884;4.322;2023-06-10T04:36:28;22.10;99.90
22781;DHT22;11557;50.884;4.322;2023-06-10T04:38:55;22.10;99.90
22781;DHT22;11557;50.884;4.322;2023-06-10T04:41:21;22.10;99.90
22781;DHT22;11557;50.884;4.322;2023-06-10T04:43:47;22.10;99.90
22781;DHT22;11557;50.884;4.322;2023-06-10T04:46:13;22.10;99.90
22781;DHT22;11557;50.884;4.322;2023-06-10T04:48:39;22.10;99.90
22781;DHT22;11557;50.884;4.322;2023-06-10T04:51:04;22.10;99.90
22781;DHT22;11557;50.884;4.322;2023-06-10T04:53:31;22.20;99.90
22781;DHT22;11557;50.884;4.322;2023-06-10T04:55:57;22.20;99.90
22781;DHT22;11557;50.884;4.322;2023-06-10T04:58:23;22.30;99.90
22781;DHT22;11557;50.884;4.322;2023-06-10T05:00:49;22.30;99.90
22781;DHT22;11557;50.884;4.322;2023-06-10T05:03:14;22.30;99.90
22781;DHT22;11557;50.884;4.322;2023-06-10T05:05:40;22.30;99.90
22781;DHT22;11557;50.884;4.322;2023-06-10T05:08:06;22.20;99.90
22781;DHT22;11557;50.884;4.322;2023-06-10T05:10:31;22.30;99.90
22781;DHT22;11557;50.884;4.322;2023-06-10T05:12:58;22.30;99.90
22781;DHT22;11557;50.884;4.322;2023-06-10T05:15:24;22.30;99.90
22781;DHT22;11557;50.884;4.322;2023-06-10T05:17:50;22.40;99.90
22781;DHT22;11557;50.884;4.322;2023-06-10T05:20:15;22.50;99.90
22781;DHT22;11557;50.884;4.322;2023-06-10T05:22:41;22.50;99.90
22781;DHT22;11557;50.884;4.322;2023-06-10T05:25:07;22.50;99.90
22781;DHT22;11557;50.884;4.322;2023-06-10T05:27:33;22.50;99.90
22781;DHT22;11557;50.884;4.322;2023-06-10T05:29:58;22.60;99.90
22781;DHT22;11557;50.884;4.322;2023-06-10T05:32:24;22.70;99.90
22781;DHT22;11557;50.884;4.322;2023-06-10T05:34:50;22.70;99.90
22781;DHT22;11557;50.884;4.322;2023-06-10T05:37:16;22.80;99.90
22781;DHT22;11557;50.884;4.322;2023-06-10T05:39:41;22.80;99.90
22781;DHT22;11557;50.884;4.322;2023-06-10T05:42:07;22.70;99.90
22781;DHT22;11557;50.884;4.322;2023-06-10T05:44:33;22.70;99.90
22781;DHT22;11557;50.884;4.322;2023-06-10T05:46:59;22.60;99.90
22781;DHT22;11557;50.884;4.322;2023-06-10T05:49:25;22.60;99.90
22781;DHT22;11557;50.884;4.322;2023-06-10T05:51:50;22.70;99.90
22781;DHT22;11557;50.884;4.322;2023-06-10T05:54:18;22.80;99.90
22781;DHT22;11557;50.884;4.322;2023-06-10T05:56:44;22.80;99.90
22781;DHT22;11557;50.884;4.322;2023-06-10T05:59:10;22.80;99.90
22781;DHT22;11557;50.884;4.322;2023-06-10T06:01:35;22.90;99.90
22781;DHT22;11557;50.884;4.322;2023-06-10T06:04:01;22.90;99.90
22781;DHT22;11557;50.884;4.322;2023-06-10T06:06:26;23.00;99.90
22781;DHT22;11557;50.884;4.322;2023-06-10T06:08:52;23.00;99.90
22781;DHT22;11557;50.884;4.322;2023-06-10T06:11:18;23.00;99.90
22781;DHT22;11557;50.884;4.322;2023-06-10T06:13:43;23.00;99.90
22781;DHT22;11557;50.884;4.322;2023-06-10T06:16:09;23.10;99.90
22781;DHT22;11557;50.884;4.322;2023-06-10T06:18:35;23.10;99.90
22781;DHT22;11557;50.884;4.322;2023-06-10T06:21:01;23.10;99.90
22781;DHT22;11557;50.884;4.322;2023-06-10T06:23:26;23.10;99.90
22781;DHT22;11557;50.884;4.322;2023-06-10T06:25:52;23.10;99.90
22781;DHT22;11557;50.884;4.322;2023-06-10T06:28:18;23.20;99.90
22781;DHT22;11557;50.884;4.322;2023-06-10T06:30:46;23.30;99.90
22781;DHT22;11557;50.884;4.322;2023-06-10T06:33:12;23.40;99.90
22781;DHT22;11557;50.884;4.322;2023-06-10T06:35:37;23.50;99.90
22781;DHT22;11557;50.884;4.322;2023-06-10T06:38:03;23.80;99.90
22781;DHT22;11557;50.884;4.322;2023-06-10T06:40:29;25.60;99.90
22781;DHT22;11557;50.884;4.322;2023-06-10T06:42:55;28.70;99.90
22781;DHT22;11557;50.884;4.322;2023-06-10T06:45:21;31.40;99.90
22781;DHT22;11557;50.884;4.322;2023-06-10T06:47:47;33.90;99.90
22781;DHT22;11557;50.884;4.322;2023-06-10T06:50:13;35.70;99.90
22781;DHT22;11557;50.884;4.322;2023-06-10T06:52:39;37.10;99.90
22781;DHT22;11557;50.884;4.322;2023-06-10T06:55:06;38.30;99.90
22781;DHT22;11557;50.884;4.322;2023-06-10T06:57:32;39.60;97.80
22781;DHT22;11557;50.884;4.322;2023-06-10T06:59:57;40.50;95.30
22781;DHT22;11557;50.884;4.322;2023-06-10T07:02:23;41.40;94.10
22781;DHT22;11557;50.884;4.322;2023-06-10T07:04:49;42.50;92.90
22781;DHT22;11557;50.884;4.322;2023-06-10T07:07:15;43.00;91.20
22781;DHT22;11557;50.884;4.322;2023-06-10T07:09:41;43.60;88.00
22781;DHT22;11557;50.884;4.322;2023-06-10T07:12:07;44.10;86.80
22781;DHT22;11557;50.884;4.322;2023-06-10T07:14:32;44.40;86.60
22781;DHT22;11557;50.884;4.322;2023-06-10T07:16:58;44.90;80.50
22781;DHT22;11557;50.884;4.322;2023-06-10T07:19:24;45.00;80.40
22781;DHT22;11557;50.884;4.322;2023-06-10T07:21:49;45.00;80.10
22781;DHT22;11557;50.884;4.322;2023-06-10T07:24:15;45.10;79.70
22781;DHT22;11557;50.884;4.322;2023-06-10T07:26:40;45.90;78.40
22781;DHT22;11557;50.884;4.322;2023-06-10T07:29:06;45.70;78.20
22781;DHT22;11557;50.884;4.322;2023-06-10T07:31:33;46.00;78.90
22781;DHT22;11557;50.884;4.322;2023-06-10T07:33:59;45.90;76.10
22781;DHT22;11557;50.884;4.322;2023-06-10T07:36:25;46.20;78.70
22781;DHT22;11557;50.884;4.322;2023-06-10T07:38:54;46.10;75.00
22781;DHT22;11557;50.884;4.322;2023-06-10T07:41:20;46.20;77.10
22781;DHT22;11557;50.884;4.322;2023-06-10T07:43:46;45.80;76.00
22781;DHT22;11557;50.884;4.322;2023-06-10T07:46:11;45.60;73.90
22781;DHT22;11557;50.884;4.322;2023-06-10T07:48:37;45.80;75.60
22781;DHT22;11557;50.884;4.322;2023-06-10T07:51:03;46.30;71.70
22781;DHT22;11557;50.884;4.322;2023-06-10T07:53:28;45.90;73.80
22781;DHT22;11557;50.884;4.322;2023-06-10T07:55:54;45.40;72.80
22781;DHT22;11557;50.884;4.322;2023-06-10T07:58:20;45.30;72.60
22781;DHT22;11557;50.884;4.322;2023-06-10T08:00:47;45.40;73.10
22781;DHT22;11557;50.884;4.322;2023-06-10T08:03:12;45.30;71.10
22781;DHT22;11557;50.884;4.322;2023-06-10T08:05:39;45.40;73.90
22781;DHT22;11557;50.884;4.322;2023-06-10T08:08:05;45.00;71.90
22781;DHT22;11557;50.884;4.322;2023-06-10T08:10:31;44.80;72.40
22781;DHT22;11557;50.884;4.322;2023-06-10T08:12:57;44.80;72.10
22781;DHT22;11557;50.884;4.322;2023-06-10T08:15:22;44.80;71.60
22781;DHT22;11557;50.884;4.322;2023-06-10T08:17:49;44.60;72.70
22781;DHT22;11557;50.884;4.322;2023-06-10T08:20:14;44.70;71.20
22781;DHT22;11557;50.884;4.322;2023-06-10T08:22:40;44.80;74.60
22781;DHT22;11557;50.884;4.322;2023-06-10T08:25:07;45.00;73.10
22781;DHT22;11557;50.884;4.322;2023-06-10T08:27:33;45.10;70.00
22781;DHT22;11557;50.884;4.322;2023-06-10T08:29:58;44.80;69.80
22781;DHT22;11557;50.884;4.322;2023-06-10T08:32:26;44.70;70.00
22781;DHT22;11557;50.884;4.322;2023-06-10T08:34:52;44.50;70.30
22781;DHT22;11557;50.884;4.322;2023-06-10T08:37:18;43.90;71.80
22781;DHT22;11557;50.884;4.322;2023-06-10T08:39:43;43.90;69.70
22781;DHT22;11557;50.884;4.322;2023-06-10T08:42:25;44.20;69.50
22781;DHT22;11557;50.884;4.322;2023-06-10T08:44:55;44.00;69.00
22781;DHT22;11557;50.884;4.322;2023-06-10T08:47:25;44.60;70.20
22781;DHT22;11557;50.884;4.322;2023-06-10T08:49:55;44.20;68.70
22781;DHT22;11557;50.884;4.322;2023-06-10T08:52:22;44.00;71.30
22781;DHT22;11557;50.884;4.322;2023-06-10T08:55:04;43.80;69.40
22781;DHT22;11557;50.884;4.322;2023-06-10T08:57:30;43.80;71.30
22781;DHT22;11557;50.884;4.322;2023-06-10T08:59:57;44.30;70.20
22781;DHT22;11557;50.884;4.322;2023-06-10T09:02:27;44.40;70.20
22781;DHT22;11557;50.884;4.322;2023-06-10T09:04:53;44.30;70.80
22781;DHT22;11557;50.884;4.322;2023-06-10T09:07:20;44.40;70.30
22781;DHT22;11557;50.884;4.322;2023-06-10T09:09:46;44.00;72.10
22781;DHT22;11557;50.884;4.322;2023-06-10T09:12:15;43.90;71.10
22781;DHT22;11557;50.884;4.322;2023-06-10T09:14:42;43.50;70.00
22781;DHT22;11557;50.884;4.322;2023-06-10T09:17:07;43.50;69.80
22781;DHT22;11557;50.884;4.322;2023-06-10T09:19:33;43.40;70.80
22781;DHT22;11557;50.884;4.322;2023-06-10T09:22:00;43.10;70.80
22781;DHT22;11557;50.884;4.322;2023-06-10T09:24:26;42.90;72.20
22781;DHT22;11557;50.884;4.322;2023-06-10T09:27:03;42.10;71.00
22781;DHT22;11557;50.884;4.322;2023-06-10T09:29:29;42.20;72.70
22781;DHT22;11557;50.884;4.322;2023-06-10T09:31:55;41.80;73.50
22781;DHT22;11557;50.884;4.322;2023-06-10T09:34:25;41.80;71.20
22781;DHT22;11557;50.884;4.322;2023-06-10T09:36:51;41.80;70.30
22781;DHT22;11557;50.884;4.322;2023-06-10T09:39:18;41.70;75.70
22781;DHT22;11557;50.884;4.322;2023-06-10T09:41:45;41.50;70.50
22781;DHT22;11557;50.884;4.322;2023-06-10T09:44:20;41.50;72.40
22781;DHT22;11557;50.884;4.322;2023-06-10T09:46:48;41.30;71.40
22781;DHT22;11557;50.884;4.322;2023-06-10T09:49:18;41.00;73.50
22781;DHT22;11557;50.884;4.322;2023-06-10T09:51:54;41.00;70.20
22781;DHT22;11557;50.884;4.322;2023-06-10T09:54:21;41.00;71.30
22781;DHT22;11557;50.884;4.322;2023-06-10T09:56:48;40.60;75.30
22781;DHT22;11557;50.884;4.322;2023-06-10T09:59:13;40.40;75.50
22781;DHT22;11557;50.884;4.322;2023-06-10T10:01:39;39.90;72.50
22781;DHT22;11557;50.884;4.322;2023-06-10T10:04:05;39.80;74.30
22781;DHT22;11557;50.884;4.322;2023-06-10T10:06:31;40.00;72.50
22781;DHT22;11557;50.884;4.322;2023-06-10T10:08:57;39.90;72.10
22781;DHT22;11557;50.884;4.322;2023-06-10T10:11:24;39.60;72.80
22781;DHT22;11557;50.884;4.322;2023-06-10T10:13:52;39.10;72.10
22781;DHT22;11557;50.884;4.322;2023-06-10T10:16:26;38.90;74.80
22781;DHT22;11557;50.884;4.322;2023-06-10T10:18:55;38.80;72.30
22781;DHT22;11557;50.884;4.322;2023-06-10T10:21:24;38.70;74.20
22781;DHT22;11557;50.884;4.322;2023-06-10T10:26:17;38.60;75.50
22781;DHT22;11557;50.884;4.322;2023-06-10T10:29:11;38.70;76.80
22781;DHT22;11557;50.884;4.322;2023-06-10T10:31:42;38.40;73.20
22781;DHT22;11557;50.884;4.322;2023-06-10T10:34:21;37.90;75.90
22781;DHT22;11557;50.884;4.322;2023-06-10T10:36:50;37.70;72.40
22781;DHT22;11557;50.884;4.322;2023-06-10T10:39:16;37.60;75.00
22781;DHT22;11557;50.884;4.322;2023-06-10T10:41:42;37.60;72.30
22781;DHT22;11557;50.884;4.322;2023-06-10T10:44:09;37.20;73.30
22781;DHT22;11557;50.884;4.322;2023-06-10T10:46:49;37.00;71.70
22781;DHT22;11557;50.884;4.322;2023-06-10T10:49:15;36.40;76.50
22781;DHT22;11557;50.884;4.322;2023-06-10T10:52:10;36.00;74.30
22781;DHT22;11557;50.884;4.322;2023-06-10T10:54:36;35.90;73.70
22781;DHT22;11557;50.884;4.322;2023-06-10T10:57:11;35.90;76.60
22781;DHT22;11557;50.884;4.322;2023-06-10T10:59:52;36.20;76.90
22781;DHT22;11557;50.884;4.322;2023-06-10T11:02:47;36.30;75.40
22781;DHT22;11557;50.884;4.322;2023-06-10T11:05:17;36.50;73.60
22781;DHT22;11557;50.884;4.322;2023-06-10T11:07:53;36.80;72.90
22781;DHT22;11557;50.884;4.322;2023-06-10T11:10:36;36.70;70.90
22781;DHT22;11557;50.884;4.322;2023-06-10T11:13:14;36.70;73.00
22781;DHT22;11557;50.884;4.322;2023-06-10T11:15:48;36.80;76.60
22781;DHT22;11557;50.884;4.322;2023-06-10T11:28:40;36.70;72.90
22781;DHT22;11557;50.884;4.322;2023-06-10T11:31:06;36.60;72.80
22781;DHT22;11557;50.884;4.322;2023-06-10T11:33:32;36.60;74.60
22781;DHT22;11557;50.884;4.322;2023-06-10T11:35:58;36.60;76.40
22781;DHT22;11557;50.884;4.322;2023-06-10T11:38:24;36.60;74.10
22781;DHT22;11557;50.884;4.322;2023-06-10T11:40:51;36.60;73.20
22781;DHT22;11557;50.884;4.322;2023-06-10T11:43:20;36.60;75.00
22781;DHT22;11557;50.884;4.322;2023-06-10T11:45:46;36.70;72.40
22781;DHT22;11557;50.884;4.322;2023-06-10T11:48:12;36.70;74.80
22781;DHT22;11557;50.884;4.322;2023-06-10T11:50:38;36.90;74.20
22781;DHT22;11557;50.884;4.322;2023-06-10T11:53:04;36.90;72.90
22781;DHT22;11557;50.884;4.322;2023-06-10T11:55:47;36.90;73.30
22781;DHT22;11557;50.884;4.322;2023-06-10T11:58:17;36.50;74.40
22781;DHT22;11557;50.884;4.322;2023-06-10T12:00:50;36.60;74.10
22781;DHT22;11557;50.884;4.322;2023-06-10T12:03:17;36.70;71.90
22781;DHT22;11557;50.884;4.322;2023-06-10T12:08:24;36.70;73.10
22781;DHT22;11557;50.884;4.322;2023-06-10T12:10:50;36.60;73.30
22781;DHT22;11557;50.884;4.322;2023-06-10T12:13:16;36.70;72.20
22781;DHT22;11557;50.884;4.322;2023-06-10T12:15:47;36.80;74.10
22781;DHT22;11557;50.884;4.322;2023-06-10T12:18:20;36.70;72.20
22781;DHT22;11557;50.884;4.322;2023-06-10T12:20:46;36.80;74.00
22781;DHT22;11557;50.884;4.322;2023-06-10T12:23:12;36.90;75.40
22781;DHT22;11557;50.884;4.322;2023-06-10T12:25:39;37.00;74.10
22781;DHT22;11557;50.884;4.322;2023-06-10T12:28:05;36.90;72.70
22781;DHT22;11557;50.884;4.322;2023-06-10T12:30:32;36.60;73.30
22781;DHT22;11557;50.884;4.322;2023-06-10T12:32:58;36.40;72.60
22781;DHT22;11557;50.884;4.322;2023-06-10T12:35:25;36.20;72.50
22781;DHT22;11557;50.884;4.322;2023-06-10T12:37:58;36.30;73.40
22781;DHT22;11557;50.884;4.322;2023-06-10T12:40:33;36.30;74.10
22781;DHT22;11557;50.884;4.322;2023-06-10T12:42:59;36.30;74.20
22781;DHT22;11557;50.884;4.322;2023-06-10T12:45:36;36.00;73.30
22781;DHT22;11557;50.884;4.322;2023-06-10T12:48:23;35.90;75.20
22781;DHT22;11557;50.884;4.322;2023-06-10T12:50:54;35.90;73.30
22781;DHT22;11557;50.884;4.322;2023-06-10T12:53:21;35.90;74.80
22781;DHT22;11557;50.884;4.322;2023-06-10T12:55:48;36.00;75.70
22781;DHT22;11557;50.884;4.322;2023-06-10T12:58:14;35.90;73.60
22781;DHT22;11557;50.884;4.322;2023-06-10T13:00:40;35.60;73.90
22781;DHT22;11557;50.884;4.322;2023-06-10T13:03:07;35.50;74.20
22781;DHT22;11557;50.884;4.322;2023-06-10T13:05:33;35.60;72.90
22781;DHT22;11557;50.884;4.322;2023-06-10T13:07:59;35.70;75.50
22781;DHT22;11557;50.884;4.322;2023-06-10T13:10:25;35.40;73.30
22781;DHT22;11557;50.884;4.322;2023-06-10T13:12:51;35.40;74.30
22781;DHT22;11557;50.884;4.322;2023-06-10T13:15:17;35.60;74.70
22781;DHT22;11557;50.884;4.322;2023-06-10T13:17:44;35.50;76.60
22781;DHT22;11557;50.884;4.322;2023-06-10T13:20:12;35.50;74.30
22781;DHT22;11557;50.884;4.322;2023-06-10T13:22:37;35.50;75.70
22781;DHT22;11557;50.884;4.322;2023-06-10T13:25:04;35.60;76.30
22781;DHT22;11557;50.884;4.322;2023-06-10T13:27:30;35.90;73.60
22781;DHT22;11557;50.884;4.322;2023-06-10T13:29:56;35.90;73.00
22781;DHT22;11557;50.884;4.322;2023-06-10T13:32:21;35.90;73.90
22781;DHT22;11557;50.884;4.322;2023-06-10T13:34:47;35.80;73.30
22781;DHT22;11557;50.884;4.322;2023-06-10T13:37:14;35.70;73.70
22781;DHT22;11557;50.884;4.322;2023-06-10T13:39:41;35.50;73.10
22781;DHT22;11557;50.884;4.322;2023-06-10T13:42:06;35.00;73.30
22781;DHT22;11557;50.884;4.322;2023-06-10T13:44:33;34.40;74.40
22781;DHT22;11557;50.884;4.322;2023-06-10T13:47:02;34.40;73.60
22781;DHT22;11557;50.884;4.322;2023-06-10T13:49:27;34.40;76.30
22781;DHT22;11557;50.884;4.322;2023-06-10T13:51:53;34.50;76.70
22781;DHT22;11557;50.884;4.322;2023-06-10T13:54:18;34.50;76.50
22781;DHT22;11557;50.884;4.322;2023-06-10T13:56:44;34.70;77.60
22781;DHT22;11557;50.884;4.322;2023-06-10T13:59:10;34.80;74.40
22781;DHT22;11557;50.884;4.322;2023-06-10T14:01:35;34.90;74.30
22781;DHT22;11557;50.884;4.322;2023-06-10T14:04:01;35.00;73.90
22781;DHT22;11557;50.884;4.322;2023-06-10T14:06:28;35.10;73.20
22781;DHT22;11557;50.884;4.322;2023-06-10T14:08:53;35.10;73.90
22781;DHT22;11557;50.884;4.322;2023-06-10T14:11:22;35.20;73.30
22781;DHT22;11557;50.884;4.322;2023-06-10T14:13:48;35.20;74.20
22781;DHT22;11557;50.884;4.322;2023-06-10T14:16:13;35.30;73.80
22781;DHT22;11557;50.884;4.322;2023-06-10T14:18:39;35.10;72.90
22781;DHT22;11557;50.884;4.322;2023-06-10T14:21:04;35.00;74.50
22781;DHT22;11557;50.884;4.322;2023-06-10T14:23:30;35.20;73.90
22781;DHT22;11557;50.884;4.322;2023-06-10T14:25:56;35.10;75.00
22781;DHT22;11557;50.884;4.322;2023-06-10T14:28:22;35.20;73.50
22781;DHT22;11557;50.884;4.322;2023-06-10T14:30:49;35.20;73.80
22781;DHT22;11557;50.884;4.322;2023-06-10T14:33:15;35.40;72.50
22781;DHT22;11557;50.884;4.322;2023-06-10T14:35:41;35.60;73.40
22781;DHT22;11557;50.884;4.322;2023-06-10T14:38:08;35.70;73.50
22781;DHT22;11557;50.884;4.322;2023-06-10T14:40:34;35.90;72.70
22781;DHT22;11557;50.884;4.322;2023-06-10T14:42:59;35.40;73.50
22781;DHT22;11557;50.884;4.322;2023-06-10T14:45:26;35.20;74.00
22781;DHT22;11557;50.884;4.322;2023-06-10T14:47:52;34.80;73.00
22781;DHT22;11557;50.884;4.322;2023-06-10T14:50:18;34.50;72.60
22781;DHT22;11557;50.884;4.322;2023-06-10T14:52:44;34.20;74.10
22781;DHT22;11557;50.884;4.322;2023-06-10T14:55:09;34.30;72.80
22781;DHT22;11557;50.884;4.322;2023-06-10T14:57:35;34.20;75.00
22781;DHT22;11557;50.884;4.322;2023-06-10T15:00:01;34.10;74.70
22781;DHT22;11557;50.884;4.322;2023-06-10T15:02:26;34.30;75.10
22781;DHT22;11557;50.884;4.322;2023-06-10T15:04:52;34.40;73.10
22781;DHT22;11557;50.884;4.322;2023-06-10T15:07:18;34.30;74.40
22781;DHT22;11557;50.884;4.322;2023-06-10T15:09:44;34.30;76.10
22781;DHT22;11557;50.884;4.322;2023-06-10T15:12:11;34.60;73.60
22781;DHT22;11557;50.884;4.322;2023-06-10T15:14:36;34.70;76.10
22781;DHT22;11557;50.884;4.322;2023-06-10T15:17:02;34.80;72.70
22781;DHT22;11557;50.884;4.322;2023-06-10T15:19:28;34.80;74.30
22781;DHT22;11557;50.884;4.322;2023-06-10T15:21:54;35.00;71.50
22781;DHT22;11557;50.884;4.322;2023-06-10T15:24:20;35.00;72.90
22781;DHT22;11557;50.884;4.322;2023-06-10T15:26:45;34.80;73.70
22781;DHT22;11557;50.884;4.322;2023-06-10T15:29:11;34.70;72.70
22781;DHT22;11557;50.884;4.322;2023-06-10T15:31:37;34.90;72.70
22781;DHT22;11557;50.884;4.322;2023-06-10T15:34:03;34.80;72.80
22781;DHT22;11557;50.884;4.322;2023-06-10T15:36:29;34.70;74.30
22781;DHT22;11557;50.884;4.322;2023-06-10T15:39:01;34.80;72.20
22781;DHT22;11557;50.884;4.322;2023-06-10T15:41:27;34.80;72.50
22781;DHT22;11557;50.884;4.322;2023-06-10T15:43:53;34.80;71.00
22781;DHT22;11557;50.884;4.322;2023-06-10T15:46:19;34.90;72.30
22781;DHT22;11557;50.884;4.322;2023-06-10T15:48:44;34.90;73.70
22781;DHT22;11557;50.884;4.322;2023-06-10T15:51:10;34.70;73.70